sensor_id;sensor_type;location;lat;lon;timestamp;temperature;humidity
17007;DHT22;8620;51.168;4.154;2023-11-19T07:01:21;12.50;99.90
17007;DHT22;8620;51.168;4.154;2023-11-19T07:03:47;12.40;99.90
17007;DHT22;8620;51.168;4.154;2023-11-19T07:06:14;12.50;99.90
17007;DHT22;8620;51.168;4.154;2023-11-19T07:08:49;12.60;99.90
17007;DHT22;8620;51.168;4.154;2023-11-19T07:11:18;12.60;99.90
17007;DHT22;8620;51.168;4.154;2023-11-19T07:13:46;12.60;99.90
17007;DHT22;8620;51.168;4.154;2023-11-19T07:16:18;12.70;99.90
17007;DHT22;8620;51.168;4.154;2023-11-19T07:18:43;12.70;99.90
17007;DHT22;8620;51.168;4.154;2023-11-19T07:21:15;12.80;99.90
17007;DHT22;8620;51.168;4.154;2023-11-19T07:23:47;12.80;99.90
17007;DHT22;8620;51.168;4.154;2023-11-19T07:26:16;12.70;99.90
17007;DHT22;8620;51.168;4.154;2023-11-19T07:28:45;12.50;99.90
17007;DHT22;8620;51.168;4.154;2023-11-19T07:31:14;12.40;99.90
17007;DHT22;8620;51.168;4.154;2023-11-19T07:33:45;12.30;99.90
17007;DHT22;8620;51.168;4.154;2023-11-19T07:36:13;12.30;99.90
17007;DHT22;8620;51.168;4.154;2023-11-19T07:38:48;12.50;99.90
17007;DHT22;8620;51.168;4.154;2023-11-19T07:41:16;12.70;99.90
17007;DHT22;8620;51.168;4.154;2023-11-19T07:43:48;12.90;99.90
17007;DHT22;8620;51.168;4.154;2023-11-19T07:46:19;12.90;99.90
17007;DHT22;8620;51.168;4.154;2023-11-19T07:48:48;12.80;99.90
17007;DHT22;8620;51.168;4.154;2023-11-19T07:51:21;12.90;99.90
17007;DHT22;8620;51.168;4.154;2023-11-19T07:53:49;12.80;99.90
17007;DHT22;8620;51.168;4.154;2023-11-19T07:56:29;13.00;99.90
17007;DHT22;8620;51.168;4.154;2023-11-19T07:59:00;12.80;99.90
17007;DHT22;8620;51.168;4.154;2023-11-19T08:01:33;12.80;99.90
17007;DHT22;8620;51.168;4.154;2023-11-19T08:04:06;13.00;99.90
17007;DHT22;8620;51.168;4.154;2023-11-19T08:06:41;13.20;99.90
17007;DHT22;8620;51.168;4.154;2023-11-19T08:09:12;13.20;99.90
17007;DHT22;8620;51.168;4.154;2023-11-19T08:11:44;13.40;99.90
17007;DHT22;8620;51.168;4.154;2023-11-19T08:14:32;13.30;99.90
17007;DHT22;8620;51.168;4.154;2023-11-19T08:17:27;13.20;99.90
17007;DHT22;8620;51.168;4.154;2023-11-19T08:20:01;13.40;99.90
17007;DHT22;8620;51.168;4.154;2023-11-19T08:22:31;13.50;99.90
17007;DHT22;8620;51.168;4.154;2023-11-19T08:25:21;13.40;99.90
17007;DHT22;8620;51.168;4.154;2023-11-19T08:28:32;13.30;99.90
17007;DHT22;8620;51.168;4.154;2023-11-19T08:31:29;13.20;99.90
17007;DHT22;8620;51.168;4.154;2023-11-19T08:33:55;13.00;99.90
17007;DHT22;8620;51.168;4.154;2023-11-19T08:37:05;12.90;99.90
17007;DHT22;8620;51.168;4.154;2023-11-19T08:39:55;12.90;99.90
17007;DHT22;8620;51.168;4.154;2023-11-19T08:42:24;12.70;99.90
17007;DHT22;8620;51.168;4.154;2023-11-19T08:44:58;12.90;99.90
17007;DHT22;8620;51.168;4.154;2023-11-19T08:47:25;13.30;99.90
17007;DHT22;8620;51.168;4.154;2023-11-19T08:49:51;13.20;99.90
17007;DHT22;8620;51.168;4.154;2023-11-19T08:52:18;13.30;99.90
17007;DHT22;8620;51.168;4.154;2023-11-19T08:54:47;13.40;99.90
17007;DHT22;8620;51.168;4.154;2023-11-19T08:57:13;13.40;99.90
17007;DHT22;8620;51.168;4.154;2023-11-19T08:59:39;13.70;99.90
17007;DHT22;8620;51.168;4.154;2023-11-19T09:02:14;13.50;99.90
17007;DHT22;8620;51.168;4.154;2023-11-19T09:05:13;13.60;99.90
17007;DHT22;8620;51.168;4.154;2023-11-19T09:07:41;13.90;99.90
17007;DHT22;8620;51.168;4.154;2023-11-19T09:10:39;14.00;99.90
17007;DHT22;8620;51.168;4.154;2023-11-19T09:13:19;14.00;99.90
17007;DHT22;8620;51.168;4.154;2023-11-19T09:16:09;13.70;99.90
17007;DHT22;8620;51.168;4.154;2023-11-19T09:18:58;13.70;99.90
17007;DHT22;8620;51.168;4.154;2023-11-19T09:21:30;13.40;99.90
17007;DHT22;8620;51.168;4.154;2023-11-19T09:24:10;13.50;99.90
17007;DHT22;8620;51.168;4.154;2023-11-19T09:26:47;13.60;99.90
17007;DHT22;8620;51.168;4.154;2023-11-19T09:29:21;13.80;99.90
17007;DHT22;8620;51.168;4.154;2023-11-19T09:31:50;13.70;99.90
17007;DHT22;8620;51.168;4.154;2023-11-19T09:34:19;13.70;99.90
17007;DHT22;8620;51.168;4.154;2023-11-19T09:36:50;13.40;99.90
17007;DHT22;8620;51.168;4.154;2023-11-19T09:39:25;13.80;99.90
17007;DHT22;8620;51.168;4.154;2023-11-19T09:41:56;13.70;99.90
17007;DHT22;8620;51.168;4.154;2023-11-19T09:44:26;13.60;99.90
17007;DHT22;8620;51.168;4.154;2023-11-19T09:46:53;13.50;99.90
17007;DHT22;8620;51.168;4.154;2023-11-19T09:49:24;14.10;99.90
17007;DHT22;8620;51.168;4.154;2023-11-19T09:51:52;14.40;99.90
17007;DHT22;8620;51.168;4.154;2023-11-19T09:54:38;14.70;99.90
17007;DHT22;8620;51.168;4.154;2023-11-19T09:57:07;14.50;99.90
17007;DHT22;8620;51.168;4.154;2023-11-19T09:59:41;14.60;99.90
17007;DHT22;8620;51.168;4.154;2023-11-19T10:02:07;14.30;99.90
17007;DHT22;8620;51.168;4.154;2023-11-19T10:04:35;14.40;99.90
17007;DHT22;8620;51.168;4.154;2023-11-19T10:07:04;14.90;99.90
17007;DHT22;8620;51.168;4.154;2023-11-19T10:09:38;14.80;99.90
17007;DHT22;8620;51.168;4.154;2023-11-19T10:12:09;14.90;99.90
17007;DHT22;8620;51.168;4.154;2023-11-19T10:14:46;14.50;99.90
17007;DHT22;8620;51.168;4.154;2023-11-19T10:17:33;14.30;99.90
17007;DHT22;8620;51.168;4.154;2023-11-19T10:20:08;14.20;99.90
17007;DHT22;8620;51.168;4.154;2023-11-19T10:33:31;12.90;99.90
17007;DHT22;8620;51.168;4.154;2023-11-19T10:36:05;13.20;99.90
17007;DHT22;8620;51.168;4.154;2023-11-19T10:39:18;13.20;99.90
17007;DHT22;8620;51.168;4.154;2023-11-19T10:41:56;13.30;99.90
17007;DHT22;8620;51.168;4.154;2023-11-19T10:44:34;13.70;99.90
17007;DHT22;8620;51.168;4.154;2023-11-19T10:47:05;14.20;99.90
17007;DHT22;8620;51.168;4.154;2023-11-19T10:49:32;14.40;99.90
17007;DHT22;8620;51.168;4.154;2023-11-19T10:52:17;14.60;99.90
17007;DHT22;8620;51.168;4.154;2023-11-19T10:54:51;14.20;99.90
17007;DHT22;8620;51.168;4.154;2023-11-19T10:57:30;13.90;99.90
17007;DHT22;8620;51.168;4.154;2023-11-19T11:00:01;13.60;99.90
17007;DHT22;8620;51.168;4.154;2023-11-19T11:02:42;13.70;99.90
17007;DHT22;8620;51.168;4.154;2023-11-19T11:05:18;13.70;99.90
17007;DHT22;8620;51.168;4.154;2023-11-19T11:07:51;13.70;99.90
17007;DHT22;8620;51.168;4.154;2023-11-19T11:10:26;14.10;99.90
17007;DHT22;8620;51.168;4.154;2023-11-19T11:12:59;14.30;99.90
17007;DHT22;8620;51.168;4.154;2023-11-19T11:15:34;14.50;99.90
17007;DHT22;8620;51.168;4.154;2023-11-19T11:18:01;14.80;99.90
17007;DHT22;8620;51.168;4.154;2023-11-19T11:20:32;14.50;99.90
17007;DHT22;8620;51.168;4.154;2023-11-19T11:35:59;15.60;99.90
17007;DHT22;8620;51.168;4.154;2023-11-19T11:39:05;15.20;99.90
17007;DHT22;8620;51.168;4.154;2023-11-19T11:41:38;14.50;99.90
17007;DHT22;8620;51.168;4.154;2023-11-19T11:44:24;14.50;99.90
17007;DHT22;8620;51.168;4.154;2023-11-19T11:47:23;14.80;99.90
17007;DHT22;8620;51.168;4.154;2023-11-19T11:50:18;14.50;99.90
17007;DHT22;8620;51.168;4.154;2023-11-19T11:55:55;14.40;99.90
17007;DHT22;8620;51.168;4.154;2023-11-19T11:58:45;14.40;99.90
17007;DHT22;8620;51.168;4.154;2023-11-19T12:01:18;14.20;99.90
17007;DHT22;8620;51.168;4.154;2023-11-19T12:03:46;14.20;99.90
17007;DHT22;8620;51.168;4.154;2023-11-19T12:06:12;14.40;99.90
17007;DHT22;8620;51.168;4.154;2023-11-19T12:08:49;13.90;99.90
17007;DHT22;8620;51.168;4.154;2023-11-19T12:11:19;13.50;99.90
17007;DHT22;8620;51.168;4.154;2023-11-19T12:13:56;13.20;99.90
17007;DHT22;8620;51.168;4.154;2023-11-19T12:17:11;13.00;99.90
17007;DHT22;8620;51.168;4.154;2023-11-19T12:20:34;13.00;99.90
17007;DHT22;8620;51.168;4.154;2023-11-19T12:23:08;13.50;99.90
17007;DHT22;8620;51.168;4.154;2023-11-19T12:26:00;13.50;99.90
17007;DHT22;8620;51.168;4.154;2023-11-19T12:29:01;13.20;99.90
17007;DHT22;8620;51.168;4.154;2023-11-19T12:31:58;13.10;99.90
17007;DHT22;8620;51.168;4.154;2023-11-19T12:34:52;13.10;99.90
17007;DHT22;8620;51.168;4.154;2023-11-19T12:37:21;13.30;99.90
17007;DHT22;8620;51.168;4.154;2023-11-19T12:39:52;13.70;99.90
17007;DHT22;8620;51.168;4.154;2023-11-19T12:42:44;14.30;99.90
17007;DHT22;8620;51.168;4.154;2023-11-19T12:45:37;14.60;99.90
17007;DHT22;8620;51.168;4.154;2023-11-19T12:48:09;14.90;99.90
17007;DHT22;8620;51.168;4.154;2023-11-19T12:50:56;14.60;99.90
17007;DHT22;8620;51.168;4.154;2023-11-19T12:53:24;14.70;99.90
17007;DHT22;8620;51.168;4.154;2023-11-19T12:55:55;14.40;99.90
17007;DHT22;8620;51.168;4.154;2023-11-19T12:58:37;14.40;99.90
17007;DHT22;8620;51.168;4.154;2023-11-19T13:01:10;14.20;99.90
17007;DHT22;8620;51.168;4.154;2023-11-19T13:03:48;14.10;99.90
17007;DHT22;8620;51.168;4.154;2023-11-19T13:06:15;13.90;99.90
17007;DHT22;8620;51.168;4.154;2023-11-19T13:08:48;13.70;99.90
17007;DHT22;8620;51.168;4.154;2023-11-19T13:11:35;13.90;99.90
17007;DHT22;8620;51.168;4.154;2023-11-19T13:14:04;13.90;99.90
17007;DHT22;8620;51.168;4.154;2023-11-19T13:16:31;13.70;99.90
17007;DHT22;8620;51.168;4.154;2023-11-19T13:18:58;13.70;99.90
17007;DHT22;8620;51.168;4.154;2023-11-19T13:21:25;13.60;99.90
17007;DHT22;8620;51.168;4.154;2023-11-19T13:23:58;13.40;99.90
17007;DHT22;8620;51.168;4.154;2023-11-19T13:26:27;13.40;99.90
17007;DHT22;8620;51.168;4.154;2023-11-19T13:28:58;13.30;99.90
17007;DHT22;8620;51.168;4.154;2023-11-19T13:31:25;13.10;99.90
17007;DHT22;8620;51.168;4.154;2023-11-19T13:33:55;13.30;99.90
17007;DHT22;8620;51.168;4.154;2023-11-19T13:36:29;13.40;99.90
17007;DHT22;8620;51.168;4.154;2023-11-19T13:38:56;13.30;99.90
17007;DHT22;8620;51.168;4.154;2023-11-19T13:41:26;13.20;99.90
17007;DHT22;8620;51.168;4.154;2023-11-19T13:43:57;13.20;99.90
17007;DHT22;8620;51.168;4.154;2023-11-19T13:46:29;13.40;99.90
17007;DHT22;8620;51.168;4.154;2023-11-19T13:48:55;13.60;99.90
17007;DHT22;8620;51.168;4.154;2023-11-19T13:51:29;13.80;99.90
17007;DHT22;8620;51.168;4.154;2023-11-19T13:54:02;13.60;99.90
17007;DHT22;8620;51.168;4.154;2023-11-19T13:56:40;13.60;99.90
17007;DHT22;8620;51.168;4.154;2023-11-19T13:59:11;13.60;99.90
17007;DHT22;8620;51.168;4.154;2023-11-19T14:01:39;13.60;99.90
17007;DHT22;8620;51.168;4.154;2023-11-19T14:04:10;13.60;99.90
17007;DHT22;8620;51.168;4.154;2023-11-19T14:06:59;13.60;99.90
17007;DHT22;8620;51.168;4.154;2023-11-19T14:09:28;13.70;99.90
17007;DHT22;8620;51.168;4.154;2023-11-19T14:11:56;13.70;99.90
17007;DHT22;8620;51.168;4.154;2023-11-19T14:14:31;13.60;99.90
17007;DHT22;8620;51.168;4.154;2023-11-19T14:17:02;13.50;99.90
17007;DHT22;8620;51.168;4.154;2023-11-19T14:19:36;13.50;99.90
17007;DHT22;8620;51.168;4.154;2023-11-19T14:22:05;13.30;99.90
17007;DHT22;8620;51.168;4.154;2023-11-19T14:24:32;13.10;99.90
17007;DHT22;8620;51.168;4.154;2023-11-19T14:27:01;12.90;99.90
17007;DHT22;8620;51.168;4.154;2023-11-19T14:29:27;12.80;99.90
17007;DHT22;8620;51.168;4.154;2023-11-19T14:32:00;12.90;99.90
17007;DHT22;8620;51.168;4.154;2023-11-19T14:34:36;12.70;99.90
17007;DHT22;8620;51.168;4.154;2023-11-19T14:37:23;12.80;99.90
17007;DHT22;8620;51.168;4.154;2023-11-19T14:39:54;12.90;99.90
17007;DHT22;8620;51.168;4.154;2023-11-19T14:42:25;13.00;99.90
17007;DHT22;8620;51.168;4.154;2023-11-19T14:44:57;13.10;99.90
17007;DHT22;8620;51.168;4.154;2023-11-19T14:47:48;13.00;99.90
17007;DHT22;8620;51.168;4.154;2023-11-19T14:50:14;13.10;99.90
17007;DHT22;8620;51.168;4.154;2023-11-19T14:52:46;12.90;99.90
17007;DHT22;8620;51.168;4.154;2023-11-19T14:55:18;12.80;99.90
17007;DHT22;8620;51.168;4.154;2023-11-19T14:57:52;12.80;99.90
17007;DHT22;8620;51.168;4.154;2023-11-19T15:00:23;12.90;99.90
17007;DHT22;8620;51.168;4.154;2023-11-19T15:02:51;12.80;99.90
17007;DHT22;8620;51.168;4.154;2023-11-19T15:05:17;12.80;99.90
17007;DHT22;8620;51.168;4.154;2023-11-19T15:07:44;13.00;99.90
17007;DHT22;8620;51.168;4.154;2023-11-19T15:10:13;13.20;99.90
17007;DHT22;8620;51.168;4.154;2023-11-19T15:12:41;13.40;99.90
17007;DHT22;8620;51.168;4.154;2023-11-19T15:15:12;13.40;99.90
17007;DHT22;8620;51.168;4.154;2023-11-19T15:17:41;13.60;99.90
17007;DHT22;8620;51.168;4.154;2023-11-19T15:20:08;13.80;99.90
17007;DHT22;8620;51.168;4.154;2023-11-19T15:22:42;13.90;99.90
17007;DHT22;8620;51.168;4.154;2023-11-19T15:25:08;13.60;99.90
17007;DHT22;8620;51.168;4.154;2023-11-19T15:27:56;13.50;99.90
17007;DHT22;8620;51.168;4.154;2023-11-19T15:30:24;13.40;99.90
17007;DHT22;8620;51.168;4.154;2023-11-19T15:32:57;13.30;99.90
17007;DHT22;8620;51.168;4.154;2023-11-19T15:35:23;13.00;99.90
17007;DHT22;8620;51.168;4.154;2023-11-19T15:37:54;12.90;99.90
17007;DHT22;8620;51.168;4.154;2023-11-19T15:40:27;12.90;99.90
17007;DHT22;8620;51.168;4.154;2023-11-19T15:43:28;13.00;99.90
17007;DHT22;8620;51.168;4.154;2023-11-19T15:46:15;12.90;99.90
17007;DHT22;8620;51.168;4.154;2023-11-19T15:48:44;12.90;99.90
17007;DHT22;8620;51.168;4.154;2023-11-19T15:51:16;12.90;99.90
17007;DHT22;8620;51.168;4.154;2023-11-19T15:54:04;12.80;99.90
17007;DHT22;8620;51.168;4.154;2023-11-19T15:56:33;12.80;99.90
17007;DHT22;8620;51.168;4.154;2023-11-19T15:59:01;12.60;99.90
17007;DHT22;8620;51.168;4.154;2023-11-19T16:01:41;12.50;99.90
17007;DHT22;8620;51.168;4.154;2023-11-19T16:04:14;12.50;99.90
17007;DHT22;8620;51.168;4.154;2023-11-19T16:07:02;12.70;99.90
17007;DHT22;8620;51.168;4.154;2023-11-19T16:09:46;12.80;99.90
17007;DHT22;8620;51.168;4.154;2023-11-19T16:12:44;12.80;99.90
17007;DHT22;8620;51.168;4.154;2023-11-19T16:15:36;12.60;99.90
17007;DHT22;8620;51.168;4.154;2023-11-19T16:18:04;12.50;99.90
17007;DHT22;8620;51.168;4.154;2023-11-19T16:20:33;12.40;99.90
17007;DHT22;8620;51.168;4.154;2023-11-19T16:23:19;12.60;99.90
17007;DHT22;8620;51.168;4.154;2023-11-19T16:26:07;12.50;99.90
17007;DHT22;8620;51.168;4.154;2023-11-19T16:28:44;12.60;99.90
17007;DHT22;8620;51.168;4.154;2023-11-19T16:34:43;12.50;99.90
17007;DHT22;8620;51.168;4.154;2023-11-19T16:37:33;12.60;99.90
17007;DHT22;8620;51.168;4.154;2023-11-19T16:40:07;12.50;99.90
17007;DHT22;8620;51.168;4.154;2023-11-19T16:42:48;12.60;99.90
17007;DHT22;8620;51.168;4.154;2023-11-19T16:45:17;12.60;99.90
17007;DHT22;8620;51.168;4.154;2023-11-19T16:48:13;12.60;99.90
17007;DHT22;8620;51.168;4.154;2023-11-19T16:51:16;12.70;99.90
17007;DHT22;8620;51.168;4.154;2023-11-19T16:57:03;12.70;99.90
17007;DHT22;8620;51.168;4.154;2023-11-19T16:59:52;12.60;99.90
17007;DHT22;8620;51.168;4.154;2023-11-19T17:05:55;12.80;99.90
17007;DHT22;8620;51.168;4.154;2023-11-19T17:08:55;12.80;99.90
17007;DHT22;8620;51.168;4.154;2023-11-19T17:11:37;12.80;99.90
17007;DHT22;8620;51.168;4.154;2023-11-19T17:15:05;12.50;99.90
17007;DHT22;8620;51.168;4.154;2023-11-19T17:18:20;12.70;99.90
17007;DHT22;8620;51.168;4.154;2023-11-19T17:21:26;12.90;99.90
17007;DHT22;8620;51.168;4.154;2023-11-19T17:24:38;12.60;99.90
17007;DHT22;8620;51.168;4.154;2023-11-19T17:27:47;12.60;99.90
17007;DHT22;8620;51.168;4.154;2023-11-19T17:30:51;12.20;99.90
17007;DHT22;8620;51.168;4.154;2023-11-19T17:33:40;12.00;99.90
17007;DHT22;8620;51.168;4.154;2023-11-19T17:39:49;12.10;99.90
17007;DHT22;8620;51.168;4.154;2023-11-19T17:42:23;12.10;99.90
17007;DHT22;8620;51.168;4.154;2023-11-19T17:44:49;12.40;99.90
17007;DHT22;8620;51.168;4.154;2023-11-19T17:47:24;12.40;99.90
17007;DHT22;8620;51.168;4.154;2023-11-19T17:49:55;12.20;99.90
17007;DHT22;8620;51.168;4.154;2023-11-19T17:52:29;12.00;99.90
17007;DHT22;8620;51.168;4.154;2023-11-19T17:55:21;12.00;99.90
17007;DHT22;8620;51.168;4.154;2023-11-19T17:57:49;12.00;99.90
17007;DHT22;8620;51.168;4.154;2023-11-19T18:00:25;12.00;99.90
17007;DHT22;8620;51.168;4.154;2023-11-19T18:03:23;12.20;99.90
17007;DHT22;8620;51.168;4.154;2023-11-19T18:06:15;12.10;99.90
17007;DHT22;8620;51.168;4.154;2023-11-19T18:08:55;12.30;99.90
17007;DHT22;8620;51.168;4.154;2023-11-19T18:11:44;12.30;99.90
17007;DHT22;8620;51.168;4.154;2023-11-19T18:15:02;12.40;99.90
17007;DHT22;8620;51.168;4.154;2023-11-19T18:17:55;12.20;99.90
17007;DHT22;8620;51.168;4.154;2023-11-19T18:20:44;12.40;99.90
17007;DHT22;8620;51.168;4.154;2023-11-19T18:23:39;12.50;99.90
17007;DHT22;8620;51.168;4.154;2023-11-19T18:26:21;12.60;99.90
17007;DHT22;8620;51.168;4.154;2023-11-19T18:28:52;12.50;99.90
17007;DHT22;8620;51.168;4.154;2023-11-19T18:31:29;12.60;99.90
17007;DHT22;8620;51.168;4.154;2023-11-19T18:37:50;12.20;99.90
17007;DHT22;8620;51.168;4.154;2023-11-19T18:40:54;12.30;99.90
17007;DHT22;8620;51.168;4.154;2023-11-19T18:43:43;12.20;99.90
17007;DHT22;8620;51.168;4.154;2023-11-19T18:46:53;12.30;99.90
17007;DHT22;8620;51.168;4.154;2023-11-19T18:49:45;12.30;99.90
17007;DHT22;8620;51.168;4.154;2023-11-19T18:52:42;12.50;99.90
17007;DHT22;8620;51.168;4.154;2023-11-19T18:55:20;12.40;99.90
17007;DHT22;8620;51.168;4.154;2023-11-19T18:58:01;12.60;99.90
17007;DHT22;8620;51.168;4.154;2023-11-19T19:00:33;12.70;99.90
17007;DHT22;8620;51.168;4.154;2023-11-19T19:03:22;12.80;99.90
17007;DHT22;8620;51.168;4.154;2023-11-19T19:05:56;12.80;99.90
17007;DHT22;8620;51.168;4.154;2023-11-19T19:08:54;13.00;99.90
17007;DHT22;8620;51.168;4.154;2023-11-19T19:12:01;12.80;99.90
17007;DHT22;8620;51.168;4.154;2023-11-19T19:15:08;12.60;99.90
17007;DHT22;8620;51.168;4.154;2023-11-19T19:17:47;12.70;99.90
17007;DHT22;8620;51.168;4.154;2023-11-19T19:20:50;12.70;99.90
17007;DHT22;8620;51.168;4.154;2023-11-19T19:23:36;12.60;99.90
17007;DHT22;8620;51.168;4.154;2023-11-19T19:26:07;12.90;99.90
17007;DHT22;8620;51.168;4.154;2023-11-19T19:28:50;13.00;99.90
17007;DHT22;8620;51.168;4.154;2023-11-19T19:31:36;13.30;99.90
17007;DHT22;8620;51.168;4.154;2023-11-19T19:34:13;12.90;99.90
17007;DHT22;8620;51.168;4.154;2023-11-19T19:36:53;12.90;99.90
17007;DHT22;8620;51.168;4.154;2023-11-19T19:39:51;12.70;99.90
17007;DHT22;8620;51.168;4.154;2023-11-19T19:42:28;12.70;99.90
17007;DHT22;8620;51.168;4.154;2023-11-19T19:45:03;12.50;99.90
17007;DHT22;8620;51.168;4.154;2023-11-19T19:47:38;12.60;99.90
17007;DHT22;8620;51.168;4.154;2023-11-19T19:50:18;12.90;99.90
17007;DHT22;8620;51.168;4.154;2023-11-19T19:52:55;12.90;99.90
17007;DHT22;8620;51.168;4.154;2023-11-19T19:55:44;12.80;99.90
17007;DHT22;8620;51.168;4.154;2023-11-19T19:58:16;12.80;99.90
17007;DHT22;8620;51.168;4.154;2023-11-19T20:00:46;12.80;99.90
17007;DHT22;8620;51.168;4.154;2023-11-19T20:03:25;12.90;99.90
17007;DHT22;8620;51.168;4.154;2023-11-19T20:06:06;12.80;99.90
17007;DHT22;8620;51.168;4.154;2023-11-19T20:08:38;12.60;99.90
17007;DHT22;8620;51.168;4.154;2023-11-19T20:11:34;12.70;99.90
17007;DHT22;8620;51.168;4.154;2023-11-19T20:14:08;12.70;99.90
17007;DHT22;8620;51.168;4.154;2023-11-19T20:16:49;12.70;99.90
17007;DHT22;8620;51.168;4.154;2023-11-19T20:19:39;12.80;99.90
17007;DHT22;8620;51.168;4.154;2023-11-19T20:22:10;12.80;99.90
17007;DHT22;8620;51.168;4.154;2023-11-19T20:24:56;12.80;99.90
17007;DHT22;8620;51.168;4.154;2023-11-19T20:27:42;12.80;99.90
17007;DHT22;8620;51.168;4.154;2023-11-19T20:30:23;12.70;99.90
17007;DHT22;8620;51.168;4.154;2023-11-19T20:32:54;12.90;99.90
17007;DHT22;8620;51.168;4.154;2023-11-19T20:35:34;12.80;99.90
17007;DHT22;8620;51.168;4.154;2023-11-19T20:38:10;12.90;99.90
17007;DHT22;8620;51.168;4.154;2023-11-19T20:40:42;12.90;99.90
17007;DHT22;8620;51.168;4.154;2023-11-19T20:43:19;13.00;99.90
17007;DHT22;8620;51.168;4.154;2023-11-19T20:45:46;12.90;99.90
17007;DHT22;8620;51.168;4.154;2023-11-19T20:48:27;12.80;99.90
17007;DHT22;8620;51.168;4.154;2023-11-19T20:51:02;12.90;99.90
17007;DHT22;8620;51.168;4.154;2023-11-19T20:54:15;12.90;99.90
17007;DHT22;8620;51.168;4.154;2023-11-19T20:56:45;12.90;99.90
